sensor_id;sensor_type;location;lat;lon;timestamp;pressure;altitude;pressure_sealevel;temperature;humidity
80198;BME280;69517;52.030;7.106;2023-06-22T00:00:31;101056.91;;;24.57;85.08
80198;BME280;69517;52.030;7.106;2023-06-22T00:02:58;101055.09;;;24.57;85.06
80198;BME280;69517;52.030;7.106;2023-06-22T00:05:25;101046.34;;;24.57;85.25
80198;BME280;69517;52.030;7.106;2023-06-22T00:07:52;101041.03;;;24.57;85.13
80198;BME280;69517;52.030;7.106;2023-06-22T00:10:18;101035.75;;;24.57;85.21
80198;BME280;69517;52.030;7.106;2023-06-22T00:12:44;101037.41;;;24.58;85.14
80198;BME280;69517;52.030;7.106;2023-06-22T00:15:11;101036.59;;;24.57;85.04
80198;BME280;69517;52.030;7.106;2023-06-22T00:17:37;101031.31;;;24.57;85.02
80198;BME280;69517;52.030;7.106;2023-06-22T00:20:03;101036.59;;;24.57;84.83
80198;BME280;69517;52.030;7.106;2023-06-22T00:22:33;101037.41;;;24.58;84.79
80198;BME280;69517;52.030;7.106;2023-06-22T00:25:04;101030.47;;;24.57;84.97
80198;BME280;69517;52.030;7.106;2023-06-22T00:27:30;101029.63;;;24.56;84.83
80198;BME280;69517;52.030;7.106;2023-06-22T00:29:56;101033.13;;;24.57;85.19
80198;BME280;69517;52.030;7.106;2023-06-22T00:32:23;101025.19;;;24.57;84.85
80198;BME280;69517;52.030;7.106;2023-06-22T00:34:49;101021.69;;;24.56;84.67
80198;BME280;69517;52.030;7.106;2023-06-22T00:37:16;101014.63;;;24.57;84.32
80198;BME280;69517;52.030;7.106;2023-06-22T00:39:43;101010.28;;;24.56;84.91
80198;BME280;69517;52.030;7.106;2023-06-22T00:42:09;101017.38;;;24.55;84.81
80198;BME280;69517;52.030;7.106;2023-06-22T00:44:36;101020.84;;;24.56;84.85
80198;BME280;69517;52.030;7.106;2023-06-22T00:47:02;101014.72;;;24.55;84.84
80198;BME280;69517;52.030;7.106;2023-06-22T00:49:29;101012.94;;;24.56;85.02
80198;BME280;69517;52.030;7.106;2023-06-22T00:51:56;101009.44;;;24.55;84.36
80198;BME280;69517;52.030;7.106;2023-06-22T00:54:23;101018.22;;;24.56;84.91
80198;BME280;69517;52.030;7.106;2023-06-22T00:56:52;101021.69;;;24.56;84.82
80198;BME280;69517;52.030;7.106;2023-06-22T00:59:19;101006.78;;;24.55;84.87
80198;BME280;69517;52.030;7.106;2023-06-22T01:01:46;101007.75;;;24.54;84.84
80198;BME280;69517;52.030;7.106;2023-06-22T01:04:12;101008.59;;;24.55;84.77
80198;BME280;69517;52.030;7.106;2023-06-22T01:06:41;101007.75;;;24.54;85.02
80198;BME280;69517;52.030;7.106;2023-06-22T01:09:12;101009.53;;;24.54;85.00
80198;BME280;69517;52.030;7.106;2023-06-22T01:11:41;101014.00;;;24.53;84.88
80198;BME280;69517;52.030;7.106;2023-06-22T01:14:12;101004.25;;;24.54;84.80
80198;BME280;69517;52.030;7.106;2023-06-22T01:16:40;101007.88;;;24.53;84.51
80198;BME280;69517;52.030;7.106;2023-06-22T01:19:09;101013.16;;;24.53;84.48
80198;BME280;69517;52.030;7.106;2023-06-22T01:21:43;101001.72;;;24.52;84.54
80198;BME280;69517;52.030;7.106;2023-06-22T01:24:11;101002.56;;;24.53;84.65
80198;BME280;69517;52.030;7.106;2023-06-22T01:26:42;100993.94;;;24.51;84.95
80198;BME280;69517;52.030;7.106;2023-06-22T01:29:11;100991.16;;;24.52;84.99
80198;BME280;69517;52.030;7.106;2023-06-22T01:31:39;100997.28;;;24.53;84.54
80198;BME280;69517;52.030;7.106;2023-06-22T01:34:06;101004.38;;;24.52;84.64
80198;BME280;69517;52.030;7.106;2023-06-22T01:36:34;101005.38;;;24.51;84.82
80198;BME280;69517;52.030;7.106;2023-06-22T01:39:02;101011.47;;;24.52;84.99
80198;BME280;69517;52.030;7.106;2023-06-22T01:41:29;101005.38;;;24.51;84.73
80198;BME280;69517;52.030;7.106;2023-06-22T01:43:56;101008.81;;;24.52;84.74
80198;BME280;69517;52.030;7.106;2023-06-22T01:46:24;100996.59;;;24.51;84.51
80198;BME280;69517;52.030;7.106;2023-06-22T01:48:50;101000.88;;;24.52;84.55
80198;BME280;69517;52.030;7.106;2023-06-22T01:51:17;101005.38;;;24.51;84.80
80198;BME280;69517;52.030;7.106;2023-06-22T01:53:43;101002.72;;;24.51;84.79
80198;BME280;69517;52.030;7.106;2023-06-22T01:56:09;100996.44;;;24.52;84.55
80198;BME280;69517;52.030;7.106;2023-06-22T01:58:36;100998.25;;;24.30;82.70
80198;BME280;69517;52.030;7.106;2023-06-22T02:01:12;100997.22;;;24.08;82.49
80198;BME280;69517;52.030;7.106;2023-06-22T02:03:42;100991.41;;;23.92;82.55
80198;BME280;69517;52.030;7.106;2023-06-22T02:06:10;100991.78;;;23.88;82.69
80198;BME280;69517;52.030;7.106;2023-06-22T02:08:40;100996.19;;;23.76;82.79
80198;BME280;69517;52.030;7.106;2023-06-22T02:11:07;100989.22;;;23.75;82.70
80198;BME280;69517;52.030;7.106;2023-06-22T02:13:34;100992.41;;;23.67;82.78
80198;BME280;69517;52.030;7.106;2023-06-22T02:16:01;100992.41;;;23.67;82.75
80198;BME280;69517;52.030;7.106;2023-06-22T02:18:27;100994.34;;;23.65;83.02
80198;BME280;69517;52.030;7.106;2023-06-22T02:20:55;100997.31;;;23.61;83.14
80198;BME280;69517;52.030;7.106;2023-06-22T02:23:21;100998.41;;;23.58;83.51
80198;BME280;69517;52.030;7.106;2023-06-22T02:25:47;100995.00;;;23.56;82.94
80198;BME280;69517;52.030;7.106;2023-06-22T02:28:13;100995.97;;;23.55;83.48
80198;BME280;69517;52.030;7.106;2023-06-22T02:30:40;100994.41;;;23.53;83.44
80198;BME280;69517;52.030;7.106;2023-06-22T02:33:06;100991.88;;;23.51;83.46
80198;BME280;69517;52.030;7.106;2023-06-22T02:35:32;100993.06;;;23.47;83.45
80198;BME280;69517;52.030;7.106;2023-06-22T02:38:02;100991.28;;;23.48;83.71
80198;BME280;69517;52.030;7.106;2023-06-22T02:40:28;100998.53;;;23.44;83.75
80198;BME280;69517;52.030;7.106;2023-06-22T02:42:55;100985.56;;;23.41;83.91
80198;BME280;69517;52.030;7.106;2023-06-22T02:45:23;100980.16;;;23.42;84.00
80198;BME280;69517;52.030;7.106;2023-06-22T02:47:49;100977.88;;;23.38;84.15
80198;BME280;69517;52.030;7.106;2023-06-22T02:50:15;100979.81;;;23.36;83.90
80198;BME280;69517;52.030;7.106;2023-06-22T02:52:42;100976.44;;;23.34;83.98
80198;BME280;69517;52.030;7.106;2023-06-22T02:55:09;100979.16;;;23.32;84.19
80198;BME280;69517;52.030;7.106;2023-06-22T02:57:36;100980.97;;;23.32;84.03
80198;BME280;69517;52.030;7.106;2023-06-22T03:00:02;100982.75;;;23.31;84.30
80198;BME280;69517;52.030;7.106;2023-06-22T03:02:31;100978.56;;;23.29;84.48
80198;BME280;69517;52.030;7.106;2023-06-22T03:04:57;100981.41;;;23.26;84.06
80198;BME280;69517;52.030;7.106;2023-06-22T03:07:26;100976.97;;;23.26;84.46
80198;BME280;69517;52.030;7.106;2023-06-22T03:09:52;100980.66;;;23.24;84.59
80198;BME280;69517;52.030;7.106;2023-06-22T03:12:20;100978.88;;;23.24;84.25
80198;BME280;69517;52.030;7.106;2023-06-22T03:14:46;100979.00;;;23.23;84.38
80198;BME280;69517;52.030;7.106;2023-06-22T03:17:12;100986.28;;;23.19;84.46
80198;BME280;69517;52.030;7.106;2023-06-22T03:19:39;100980.16;;;23.19;84.26
80198;BME280;69517;52.030;7.106;2023-06-22T03:22:05;100986.28;;;23.19;84.77
80198;BME280;69517;52.030;7.106;2023-06-22T03:24:32;100985.34;;;23.20;84.66
80198;BME280;69517;52.030;7.106;2023-06-22T03:26:59;100981.97;;;23.18;84.50
80198;BME280;69517;52.030;7.106;2023-06-22T03:29:31;100982.94;;;23.17;84.09
80198;BME280;69517;52.030;7.106;2023-06-22T03:31:57;100972.38;;;23.17;84.48
80198;BME280;69517;52.030;7.106;2023-06-22T03:34:23;100979.22;;;23.20;83.88
80198;BME280;69517;52.030;7.106;2023-06-22T03:36:50;100974.91;;;23.19;84.22
80198;BME280;69517;52.030;7.106;2023-06-22T03:39:16;100973.44;;;23.15;84.36
80198;BME280;69517;52.030;7.106;2023-06-22T03:41:42;100980.41;;;23.16;84.46
80198;BME280;69517;52.030;7.106;2023-06-22T03:44:09;100980.41;;;23.16;84.24
80198;BME280;69517;52.030;7.106;2023-06-22T03:46:38;100969.84;;;23.16;84.19
80198;BME280;69517;52.030;7.106;2023-06-22T03:49:05;100968.16;;;23.15;84.42
80198;BME280;69517;52.030;7.106;2023-06-22T03:51:32;100971.75;;;23.14;84.17
80198;BME280;69517;52.030;7.106;2023-06-22T03:53:58;100977.88;;;23.14;84.25
80198;BME280;69517;52.030;7.106;2023-06-22T03:56:24;100966.72;;;23.11;84.51
80198;BME280;69517;52.030;7.106;2023-06-22T03:58:51;100970.31;;;23.10;84.60
80198;BME280;69517;52.030;7.106;2023-06-22T04:01:17;100961.53;;;23.09;84.34
80198;BME280;69517;52.030;7.106;2023-06-22T04:03:45;100965.97;;;23.09;84.36
80198;BME280;69517;52.030;7.106;2023-06-22T04:06:13;100965.75;;;23.12;84.53
80198;BME280;69517;52.030;7.106;2023-06-22T04:08:39;100964.78;;;23.13;84.38
80198;BME280;69517;52.030;7.106;2023-06-22T04:11:06;100954.25;;;23.13;84.26
80198;BME280;69517;52.030;7.106;2023-06-22T04:13:32;100961.53;;;23.09;84.51
80198;BME280;69517;52.030;7.106;2023-06-22T04:15:58;100947.50;;;23.09;84.53
80198;BME280;69517;52.030;7.106;2023-06-22T04:18:26;100951.94;;;22.59;86.54
80198;BME280;69517;52.030;7.106;2023-06-22T04:20:53;100957.69;;;22.02;90.14
80198;BME280;69517;52.030;7.106;2023-06-22T04:23:20;100959.13;;;21.81;91.39
80198;BME280;69517;52.030;7.106;2023-06-22T04:25:46;100952.66;;;21.72;91.88
80198;BME280;69517;52.030;7.106;2023-06-22T04:28:12;100952.53;;;21.61;93.46
80198;BME280;69517;52.030;7.106;2023-06-22T04:30:38;100949.94;;;21.74;93.04
80198;BME280;69517;52.030;7.106;2023-06-22T04:33:11;100948.34;;;21.59;93.70
80198;BME280;69517;52.030;7.106;2023-06-22T04:35:38;100942.78;;;21.63;93.60
80198;BME280;69517;52.030;7.106;2023-06-22T04:38:07;100946.84;;;21.55;94.34
80198;BME280;69517;52.030;7.106;2023-06-22T04:40:33;100946.69;;;21.70;94.00
80198;BME280;69517;52.030;7.106;2023-06-22T04:43:00;100942.31;;;21.96;92.97
80198;BME280;69517;52.030;7.106;2023-06-22T04:45:27;100934.53;;;22.07;91.62
80198;BME280;69517;52.030;7.106;2023-06-22T04:47:54;100940.75;;;22.06;91.90
80198;BME280;69517;52.030;7.106;2023-06-22T04:50:20;100932.84;;;22.06;92.49
80198;BME280;69517;52.030;7.106;2023-06-22T04:52:48;100943.16;;;22.09;92.41
80198;BME280;69517;52.030;7.106;2023-06-22T04:55:16;100946.72;;;22.08;92.04
80198;BME280;69517;52.030;7.106;2023-06-22T04:57:43;100939.38;;;22.13;91.96
80198;BME280;69517;52.030;7.106;2023-06-22T05:00:14;100939.91;;;22.06;92.40
80198;BME280;69517;52.030;7.106;2023-06-22T05:02:42;100944.69;;;21.86;93.13
80198;BME280;69517;52.030;7.106;2023-06-22T05:05:09;100944.22;;;22.19;91.65
80198;BME280;69517;52.030;7.106;2023-06-22T05:07:38;100944.72;;;22.50;90.17
80198;BME280;69517;52.030;7.106;2023-06-22T05:10:05;100935.50;;;22.68;88.99
80198;BME280;69517;52.030;7.106;2023-06-22T05:12:32;100934.41;;;22.83;88.22
80198;BME280;69517;52.030;7.106;2023-06-22T05:14:59;100939.03;;;22.92;87.62
80198;BME280;69517;52.030;7.106;2023-06-22T05:17:26;100938.72;;;22.97;87.61
80198;BME280;69517;52.030;7.106;2023-06-22T05:19:52;100937.41;;;23.02;87.40
80198;BME280;69517;52.030;7.106;2023-06-22T05:22:20;100936.13;;;23.08;87.09
80198;BME280;69517;52.030;7.106;2023-06-22T05:24:46;100936.72;;;23.12;86.96
80198;BME280;69517;52.030;7.106;2023-06-22T05:27:13;100935.69;;;23.14;86.83
80198;BME280;69517;52.030;7.106;2023-06-22T05:29:40;100947.66;;;23.18;86.72
80198;BME280;69517;52.030;7.106;2023-06-22T05:32:07;100953.69;;;23.20;86.05
80198;BME280;69517;52.030;7.106;2023-06-22T05:34:34;100949.84;;;23.24;86.44
80198;BME280;69517;52.030;7.106;2023-06-22T05:37:00;100955.78;;;23.28;86.19
80198;BME280;69517;52.030;7.106;2023-06-22T05:39:26;100953.84;;;23.30;86.06
80198;BME280;69517;52.030;7.106;2023-06-22T05:41:53;100951.19;;;23.30;86.15
80198;BME280;69517;52.030;7.106;2023-06-22T05:44:19;100943.81;;;23.35;85.37
80198;BME280;69517;52.030;7.106;2023-06-22T05:46:46;100946.31;;;23.36;85.56
80198;BME280;69517;52.030;7.106;2023-06-22T05:49:13;100933.13;;;23.36;85.81
80198;BME280;69517;52.030;7.106;2023-06-22T05:51:39;100940.81;;;23.39;85.82
80198;BME280;69517;52.030;7.106;2023-06-22T05:54:06;100931.97;;;23.40;85.44
80198;BME280;69517;52.030;7.106;2023-06-22T05:56:33;100941.44;;;23.43;85.56
80198;BME280;69517;52.030;7.106;2023-06-22T05:58:59;100932.38;;;23.47;85.30
80198;BME280;69517;52.030;7.106;2023-06-22T06:01:25;100935.72;;;23.49;85.21
80198;BME280;69517;52.030;7.106;2023-06-22T06:03:53;100939.09;;;23.51;84.88
80198;BME280;69517;52.030;7.106;2023-06-22T06:06:19;100942.47;;;23.53;85.05
80198;BME280;69517;52.030;7.106;2023-06-22T06:08:47;100956.38;;;23.55;84.88
80198;BME280;69517;52.030;7.106;2023-06-22T06:11:14;100956.28;;;23.57;84.87
80198;BME280;69517;52.030;7.106;2023-06-22T06:13:40;100956.28;;;23.57;84.78
80198;BME280;69517;52.030;7.106;2023-06-22T06:16:06;100952.69;;;23.58;84.99
80198;BME280;69517;52.030;7.106;2023-06-22T06:18:33;100959.75;;;23.57;85.28
80198;BME280;69517;52.030;7.106;2023-06-22T06:21:00;100958.69;;;23.60;85.16
80198;BME280;69517;52.030;7.106;2023-06-22T06:23:27;100956.75;;;23.62;84.87
80198;BME280;69517;52.030;7.106;2023-06-22T06:25:53;100954.84;;;23.64;84.88
80198;BME280;69517;52.030;7.106;2023-06-22T06:28:19;100954.75;;;23.65;85.19
80198;BME280;69517;52.030;7.106;2023-06-22T06:30:45;100952.97;;;23.66;84.67
80198;BME280;69517;52.030;7.106;2023-06-22T06:33:12;100953.66;;;23.68;84.71
80198;BME280;69517;52.030;7.106;2023-06-22T06:35:39;100945.75;;;23.68;85.08
80198;BME280;69517;52.030;7.106;2023-06-22T06:38:06;100943.94;;;23.68;85.66
80198;BME280;69517;52.030;7.106;2023-06-22T06:40:32;100950.81;;;23.71;85.24
80198;BME280;69517;52.030;7.106;2023-06-22T06:42:59;100951.03;;;23.68;85.17
80198;BME280;69517;52.030;7.106;2023-06-22T06:45:25;100944.69;;;23.70;85.48
80198;BME280;69517;52.030;7.106;2023-06-22T06:47:53;100948.88;;;23.73;84.98
80198;BME280;69517;52.030;7.106;2023-06-22T06:50:20;100946.97;;;23.75;85.21
80198;BME280;69517;52.030;7.106;2023-06-22T06:52:46;100943.72;;;23.71;85.29
80198;BME280;69517;52.030;7.106;2023-06-22T06:55:16;100949.97;;;23.70;85.40
80198;BME280;69517;52.030;7.106;2023-06-22T06:57:42;100951.66;;;23.71;85.17
80198;BME280;69517;52.030;7.106;2023-06-22T07:00:09;100952.34;;;23.73;85.30
80198;BME280;69517;52.030;7.106;2023-06-22T07:02:38;100951.41;;;23.74;85.10
80198;BME280;69517;52.030;7.106;2023-06-22T07:05:06;100951.28;;;23.76;85.27
80198;BME280;69517;52.030;7.106;2023-06-22T07:07:33;100948.66;;;23.76;85.34
80198;BME280;69517;52.030;7.106;2023-06-22T07:09:59;100940.84;;;23.74;85.39
80198;BME280;69517;52.030;7.106;2023-06-22T07:12:26;100928.50;;;23.75;85.48
80198;BME280;69517;52.030;7.106;2023-06-22T07:14:53;100934.72;;;23.74;85.82
80198;BME280;69517;52.030;7.106;2023-06-22T07:17:19;100932.06;;;23.74;85.42
80198;BME280;69517;52.030;7.106;2023-06-22T07:19:45;100938.00;;;23.77;85.28
80198;BME280;69517;52.030;7.106;2023-06-22T07:22:12;100929.13;;;23.78;85.76
80198;BME280;69517;52.030;7.106;2023-06-22T07:24:38;100926.22;;;23.81;85.19
80198;BME280;69517;52.030;7.106;2023-06-22T07:27:04;100923.59;;;23.81;84.75
80198;BME280;69517;52.030;7.106;2023-06-22T07:29:33;100925.28;;;23.82;85.07
80198;BME280;69517;52.030;7.106;2023-06-22T07:32:00;100921.69;;;23.83;85.14
80198;BME280;69517;52.030;7.106;2023-06-22T07:34:29;100922.38;;;23.85;85.12
80198;BME280;69517;52.030;7.106;2023-06-22T07:36:56;100927.66;;;23.85;85.13
80198;BME280;69517;52.030;7.106;2023-06-22T07:39:22;100935.47;;;23.87;84.71
80198;BME280;69517;52.030;7.106;2023-06-22T07:41:50;100928.41;;;23.88;84.89
80198;BME280;69517;52.030;7.106;2023-06-22T07:44:17;100930.19;;;23.87;85.00
80198;BME280;69517;52.030;7.106;2023-06-22T07:46:44;100932.72;;;23.89;85.04
80198;BME280;69517;52.030;7.106;2023-06-22T07:49:11;100931.63;;;23.91;84.71
80198;BME280;69517;52.030;7.106;2023-06-22T07:51:37;100924.56;;;23.92;84.86
80198;BME280;69517;52.030;7.106;2023-06-22T07:54:03;100933.47;;;23.91;84.89
80198;BME280;69517;52.030;7.106;2023-06-22T07:56:30;100930.81;;;23.91;85.44
80198;BME280;69517;52.030;7.106;2023-06-22T07:58:57;100925.53;;;23.91;85.07
80198;BME280;69517;52.030;7.106;2023-06-22T08:01:24;100922.75;;;23.92;85.99
80198;BME280;69517;52.030;7.106;2023-06-22T08:03:51;100922.66;;;23.94;85.58
80198;BME280;69517;52.030;7.106;2023-06-22T08:06:18;100917.25;;;23.95;85.82
80198;BME280;69517;52.030;7.106;2023-06-22T08:08:44;100916.41;;;23.95;86.02
80198;BME280;69517;52.030;7.106;2023-06-22T08:11:13;100904.16;;;23.94;86.34
80198;BME280;69517;52.030;7.106;2023-06-22T08:13:39;100910.19;;;23.96;86.34
80198;BME280;69517;52.030;7.106;2023-06-22T08:16:05;100908.50;;;23.95;86.21
80198;BME280;69517;52.030;7.106;2023-06-22T08:18:32;100907.66;;;23.94;86.35
80198;BME280;69517;52.030;7.106;2023-06-22T08:21:00;100906.56;;;23.97;86.28
80198;BME280;69517;52.030;7.106;2023-06-22T08:23:26;100903.94;;;23.97;86.29
80198;BME280;69517;52.030;7.106;2023-06-22T08:25:52;100903.94;;;23.97;86.08
80198;BME280;69517;52.030;7.106;2023-06-22T08:28:18;100906.56;;;23.97;86.56
80198;BME280;69517;52.030;7.106;2023-06-22T08:30:45;100902.84;;;23.99;86.06
80198;BME280;69517;52.030;7.106;2023-06-22T08:33:11;100905.38;;;24.01;86.05
80198;BME280;69517;52.030;7.106;2023-06-22T08:35:37;100900.81;;;24.03;86.01
80198;BME280;69517;52.030;7.106;2023-06-22T08:38:05;100893.72;;;24.03;85.65
80198;BME280;69517;52.030;7.106;2023-06-22T08:40:31;100886.53;;;24.05;85.69
80198;BME280;69517;52.030;7.106;2023-06-22T08:42:58;100874.16;;;24.06;85.43
80198;BME280;69517;52.030;7.106;2023-06-22T08:45:24;100868.16;;;24.04;86.02
80198;BME280;69517;52.030;7.106;2023-06-22T08:47:50;100864.31;;;24.08;85.83
80198;BME280;69517;52.030;7.106;2023-06-22T08:50:16;100865.03;;;24.10;85.69
80198;BME280;69517;52.030;7.106;2023-06-22T08:52:43;100858.91;;;24.09;85.78
80198;BME280;69517;52.030;7.106;2023-06-22T08:55:12;100853.63;;;24.09;85.66
80198;BME280;69517;52.030;7.106;2023-06-22T08:57:39;100852.66;;;24.10;85.32
80198;BME280;69517;52.030;7.106;2023-06-22T09:00:06;100853.50;;;24.11;85.85
80198;BME280;69517;52.030;7.106;2023-06-22T09:02:40;100847.25;;;24.12;85.44
80198;BME280;69517;52.030;7.106;2023-06-22T09:05:06;100841.13;;;24.11;85.57
80198;BME280;69517;52.030;7.106;2023-06-22T09:07:33;100841.03;;;24.13;85.43
80198;BME280;69517;52.030;7.106;2023-06-22T09:09:59;100841.88;;;24.13;85.86
80198;BME280;69517;52.030;7.106;2023-06-22T09:12:27;100838.28;;;24.14;85.51
80198;BME280;69517;52.030;7.106;2023-06-22T09:14:55;100845.94;;;24.17;86.58
80198;BME280;69517;52.030;7.106;2023-06-22T09:17:22;100842.44;;;24.17;86.64
80198;BME280;69517;52.030;7.106;2023-06-22T09:19:48;100826.72;;;24.15;86.93
80198;BME280;69517;52.030;7.106;2023-06-22T09:22:14;100820.00;;;24.11;86.33
80198;BME280;69517;52.030;7.106;2023-06-22T09:24:41;100823.50;;;24.12;86.59
80198;BME280;69517;52.030;7.106;2023-06-22T09:27:07;100823.59;;;24.10;86.45
80198;BME280;69517;52.030;7.106;2023-06-22T09:29:35;100827.09;;;24.11;86.48
80198;BME280;69517;52.030;7.106;2023-06-22T09:32:01;100817.38;;;24.11;86.12
80198;BME280;69517;52.030;7.106;2023-06-22T09:34:27;100815.69;;;24.10;85.81
80198;BME280;69517;52.030;7.106;2023-06-22T09:36:55;100819.28;;;24.09;86.21
80198;BME280;69517;52.030;7.106;2023-06-22T09:39:22;100829.03;;;24.09;86.36
80198;BME280;69517;52.030;7.106;2023-06-22T09:41:48;100833.31;;;24.10;85.59
80198;BME280;69517;52.030;7.106;2023-06-22T09:44:15;100841.13;;;24.11;85.86
80198;BME280;69517;52.030;7.106;2023-06-22T09:46:42;100847.38;;;24.10;86.01
80198;BME280;69517;52.030;7.106;2023-06-22T09:49:09;100843.19;;;24.08;86.62
80198;BME280;69517;52.030;7.106;2023-06-22T09:51:35;100839.59;;;24.09;86.33
80198;BME280;69517;52.030;7.106;2023-06-22T09:54:03;100836.97;;;24.09;86.43
80198;BME280;69517;52.030;7.106;2023-06-22T09:56:29;100837.66;;;24.11;86.04
80198;BME280;69517;52.030;7.106;2023-06-22T09:58:56;100828.19;;;24.08;86.32
80198;BME280;69517;52.030;7.106;2023-06-22T10:01:22;100831.66;;;24.09;86.58
80198;BME280;69517;52.030;7.106;2023-06-22T10:03:52;100825.28;;;24.11;86.49
80198;BME280;69517;52.030;7.106;2023-06-22T10:06:19;100823.50;;;24.12;86.23
80198;BME280;69517;52.030;7.106;2023-06-22T10:08:45;100815.56;;;24.12;86.13
80198;BME280;69517;52.030;7.106;2023-06-22T10:11:13;100806.81;;;24.11;86.70
80198;BME280;69517;52.030;7.106;2023-06-22T10:13:39;100798.75;;;24.13;86.34
80198;BME280;69517;52.030;7.106;2023-06-22T10:16:05;100797.81;;;24.14;86.36
80198;BME280;69517;52.030;7.106;2023-06-22T10:18:32;100804.88;;;24.13;86.72
80198;BME280;69517;52.030;7.106;2023-06-22T10:20:59;100802.34;;;24.12;86.44
80198;BME280;69517;52.030;7.106;2023-06-22T10:23:26;100804.03;;;24.13;86.71
80198;BME280;69517;52.030;7.106;2023-06-22T10:25:52;100802.34;;;24.12;87.56
80198;BME280;69517;52.030;7.106;2023-06-22T10:28:18;100811.00;;;24.14;87.07
80198;BME280;69517;52.030;7.106;2023-06-22T10:30:44;100811.84;;;24.14;86.67
80198;BME280;69517;52.030;7.106;2023-06-22T10:33:11;100815.44;;;24.13;86.99
80198;BME280;69517;52.030;7.106;2023-06-22T10:35:38;100807.53;;;24.13;87.02
80198;BME280;69517;52.030;7.106;2023-06-22T10:38:06;100806.56;;;24.14;86.91
80198;BME280;69517;52.030;7.106;2023-06-22T10:40:33;100800.19;;;24.17;87.35
80198;BME280;69517;52.030;7.106;2023-06-22T10:42:59;100805.47;;;24.17;87.00
80198;BME280;69517;52.030;7.106;2023-06-22T10:45:26;100808.38;;;24.14;88.56
80198;BME280;69517;52.030;7.106;2023-06-22T10:47:53;100809.91;;;24.16;88.16
80198;BME280;69517;52.030;7.106;2023-06-22T10:50:19;100806.22;;;24.19;88.19
80198;BME280;69517;52.030;7.106;2023-06-22T10:52:46;100806.13;;;24.20;87.85
80198;BME280;69517;52.030;7.106;2023-06-22T10:55:13;100797.19;;;24.21;87.83
80198;BME280;69517;52.030;7.106;2023-06-22T10:57:40;100798.19;;;24.20;88.26
80198;BME280;69517;52.030;7.106;2023-06-22T11:00:08;100792.75;;;24.22;88.33
80198;BME280;69517;52.030;7.106;2023-06-22T11:02:36;100787.47;;;24.22;88.75
80198;BME280;69517;52.030;7.106;2023-06-22T11:05:02;100780.53;;;24.21;88.96
80198;BME280;69517;52.030;7.106;2023-06-22T11:07:29;100777.75;;;24.22;88.80
80198;BME280;69517;52.030;7.106;2023-06-22T11:09:55;100769.81;;;24.22;88.64
80198;BME280;69517;52.030;7.106;2023-06-22T11:12:23;100762.75;;;24.23;88.97
80198;BME280;69517;52.030;7.106;2023-06-22T11:14:49;100756.50;;;24.24;88.53
80198;BME280;69517;52.030;7.106;2023-06-22T11:17:16;100736.22;;;24.24;88.40
80198;BME280;69517;52.030;7.106;2023-06-22T11:19:43;100732.72;;;24.24;88.65
80198;BME280;69517;52.030;7.106;2023-06-22T11:22:09;100733.56;;;24.24;88.51
80198;BME280;69517;52.030;7.106;2023-06-22T11:24:35;100734.41;;;24.25;87.58
80198;BME280;69517;52.030;7.106;2023-06-22T11:27:02;100738.72;;;24.26;88.44
80198;BME280;69517;52.030;7.106;2023-06-22T11:29:29;100744.84;;;24.27;88.01
80198;BME280;69517;52.030;7.106;2023-06-22T11:31:55;100744.00;;;24.26;88.08
80198;BME280;69517;52.030;7.106;2023-06-22T11:34:22;100736.94;;;24.27;88.11
80198;BME280;69517;52.030;7.106;2023-06-22T11:36:48;100735.13;;;24.27;88.48
80198;BME280;69517;52.030;7.106;2023-06-22T11:39:14;100734.28;;;24.27;88.48
80198;BME280;69517;52.030;7.106;2023-06-22T11:41:41;100736.09;;;24.26;88.47
80198;BME280;69517;52.030;7.106;2023-06-22T11:44:07;100742.44;;;24.23;88.88
80198;BME280;69517;52.030;7.106;2023-06-22T11:46:35;100739.81;;;24.23;88.81
80198;BME280;69517;52.030;7.106;2023-06-22T11:49:01;100738.97;;;24.23;88.63
80198;BME280;69517;52.030;7.106;2023-06-22T11:51:27;100735.47;;;24.22;88.24
80198;BME280;69517;52.030;7.106;2023-06-22T11:53:56;100740.75;;;24.22;88.03
80198;BME280;69517;52.030;7.106;2023-06-22T11:56:22;100740.75;;;24.22;88.08
80198;BME280;69517;52.030;7.106;2023-06-22T11:58:48;100737.28;;;24.22;88.24
80198;BME280;69517;52.030;7.106;2023-06-22T12:01:15;100741.59;;;24.23;87.96
80198;BME280;69517;52.030;7.106;2023-06-22T12:03:42;100739.91;;;24.22;87.78
80198;BME280;69517;52.030;7.106;2023-06-22T12:06:09;100737.53;;;24.19;88.54
80198;BME280;69517;52.030;7.106;2023-06-22T12:08:35;100739.22;;;24.20;88.32
80198;BME280;69517;52.030;7.106;2023-06-22T12:11:01;100740.91;;;24.21;88.07
80198;BME280;69517;52.030;7.106;2023-06-22T12:13:28;100734.78;;;24.20;87.93
80198;BME280;69517;52.030;7.106;2023-06-22T12:15:54;100729.50;;;24.20;88.88
80198;BME280;69517;52.030;7.106;2023-06-22T12:18:20;100732.84;;;24.22;88.80
80198;BME280;69517;52.030;7.106;2023-06-22T12:20:48;100734.63;;;24.22;88.80
80198;BME280;69517;52.030;7.106;2023-06-22T12:23:14;100727.81;;;24.19;88.95
80198;BME280;69517;52.030;7.106;2023-06-22T12:25:40;100723.38;;;24.20;89.01
80198;BME280;69517;52.030;7.106;2023-06-22T12:28:07;100725.88;;;24.21;88.80
80198;BME280;69517;52.030;7.106;2023-06-22T12:30:33;100728.50;;;24.21;88.61
80198;BME280;69517;52.030;7.106;2023-06-22T12:32:59;100724.06;;;24.22;88.73
80198;BME280;69517;52.030;7.106;2023-06-22T12:35:25;100724.91;;;24.22;89.05
80198;BME280;69517;52.030;7.106;2023-06-22T12:37:53;100720.72;;;24.20;88.59
80198;BME280;69517;52.030;7.106;2023-06-22T12:40:19;100719.91;;;24.19;88.89
80198;BME280;69517;52.030;7.106;2023-06-22T12:42:46;100722.63;;;24.18;87.90
80198;BME280;69517;52.030;7.106;2023-06-22T12:45:12;100724.34;;;24.19;88.72
80198;BME280;69517;52.030;7.106;2023-06-22T12:47:38;100725.25;;;24.18;88.39